Time;durP1;ratioP1;P1;durP2;ratioP2;P2;SDS_P1;SDS_P2;PMS_P1;PMS_P2;Temp;Humidity;BMP_temperature;BMP_pressure;BME280_temperature;BME280_humidity;BME280_pressure;Samples;Min_cycle;Max_cycle;Signal;HPM_P1;HPM_P2
2022/07/17 00:00:26;;;;;;;3.65;2.10;;;14.40;99.90;;;;;;5014013;28;20033;-73
2022/07/17 00:02:52;;;;;;;3.33;1.70;;;14.10;99.90;;;;;;5014821;28;20459;-73
2022/07/17 00:05:18;;;;;;;5.25;1.73;;;14.20;99.90;;;;;;5014562;28;20076;-74
2022/07/17 00:07:44;;;;;;;5.43;2.00;;;14.30;99.90;;;;;;5014508;28;20030;-73
2022/07/17 00:10:10;;;;;;;5.05;2.20;;;14.30;99.90;;;;;;5014863;28;20029;-73
2022/07/17 00:12:36;;;;;;;2.97;1.90;;;14.30;99.90;;;;;;5014111;28;20030;-73
2022/07/17 00:15:01;;;;;;;4.55;1.92;;;14.10;99.90;;;;;;5014320;28;20029;-73
2022/07/17 00:17:27;;;;;;;4.57;1.52;;;14.10;99.90;;;;;;5014602;28;20396;-73
2022/07/17 00:19:53;;;;;;;2.85;1.38;;;14.30;99.90;;;;;;5014302;28;20033;-73
2022/07/17 00:22:20;;;;;;;6.65;1.58;;;14.40;99.90;;;;;;5013712;28;20152;-73
2022/07/17 00:24:46;;;;;;;5.15;1.70;;;14.50;99.90;;;;;;5014443;28;20408;-73
2022/07/17 00:27:11;;;;;;;2.78;1.58;;;14.20;99.90;;;;;;5026664;28;20030;-73
2022/07/17 00:29:37;;;;;;;5.13;1.48;;;14.20;99.90;;;;;;5032783;28;20040;-73
2022/07/17 00:32:03;;;;;;;3.25;1.40;;;14.10;99.90;;;;;;5033330;28;20021;-73
2022/07/17 00:34:28;;;;;;;4.72;1.63;;;13.80;99.90;;;;;;5033730;28;20083;-73
2022/07/17 00:36:54;;;;;;;4.03;1.55;;;14.00;99.90;;;;;;5033756;28;20024;-74
2022/07/17 00:39:19;;;;;;;5.00;1.50;;;14.20;99.90;;;;;;5013436;28;20022;-73
2022/07/17 00:41:46;;;;;;;3.13;1.60;;;14.20;99.90;;;;;;5013515;28;20026;-73
2022/07/17 00:44:12;;;;;;;3.65;1.30;;;14.40;99.90;;;;;;5014015;28;20036;-73
2022/07/17 00:46:38;;;;;;;4.70;1.27;;;14.40;99.90;;;;;;5013759;28;20028;-73
2022/07/17 00:49:05;;;;;;;6.13;1.30;;;14.20;99.90;;;;;;5013827;28;20109;-73
2022/07/17 00:51:31;;;;;;;3.92;1.40;;;14.10;99.90;;;;;;5013077;28;20030;-74
2022/07/17 00:53:58;;;;;;;2.85;1.30;;;14.10;99.90;;;;;;5012977;28;20100;-73
2022/07/17 00:56:25;;;;;;;5.95;1.45;;;13.90;99.90;;;;;;5013608;28;20030;-73
2022/07/17 00:58:51;;;;;;;3.28;1.38;;;13.90;99.90;;;;;;5013566;28;20025;-73
2022/07/17 01:01:17;;;;;;;4.53;1.17;;;13.90;99.90;;;;;;5012984;28;20381;-74
2022/07/17 01:03:43;;;;;;;5.90;1.45;;;14.00;99.90;;;;;;5013554;28;20228;-73
2022/07/17 01:06:09;;;;;;;2.83;1.33;;;14.10;99.90;;;;;;5012109;28;20030;-73
2022/07/17 01:08:36;;;;;;;2.78;1.23;;;13.60;99.90;;;;;;5013412;28;20037;-73
2022/07/17 01:11:02;;;;;;;4.75;1.50;;;13.60;99.90;;;;;;5011586;28;20026;-73
2022/07/17 01:13:29;;;;;;;3.25;1.30;;;13.40;99.90;;;;;;5013212;28;20044;-73
2022/07/17 01:15:55;;;;;;;4.93;1.48;;;13.30;99.90;;;;;;5013274;28;20108;-73
2022/07/17 01:18:22;;;;;;;6.97;2.03;;;13.40;99.90;;;;;;5008715;28;20022;-73
2022/07/17 01:20:48;;;;;;;3.22;1.45;;;13.40;99.90;;;;;;5004780;28;20026;-73
2022/07/17 01:23:16;;;;;;;3.25;1.30;;;13.40;99.90;;;;;;5013132;28;20104;-73
2022/07/17 01:25:41;;;;;;;7.05;1.55;;;13.40;99.90;;;;;;5013158;28;20288;-73
2022/07/17 01:28:08;;;;;;;4.28;1.52;;;13.40;99.90;;;;;;5013142;28;20484;-73
2022/07/17 01:30:34;;;;;;;3.65;1.30;;;13.30;99.90;;;;;;5012461;28;20030;-73
2022/07/17 01:33:00;;;;;;;4.75;1.40;;;13.60;99.90;;;;;;5012972;28;20556;-73
2022/07/17 01:35:26;;;;;;;3.15;1.50;;;13.60;99.90;;;;;;5012801;28;20097;-73
2022/07/17 01:37:52;;;;;;;2.28;1.30;;;13.40;99.90;;;;;;5012887;28;20026;-73
2022/07/17 01:40:18;;;;;;;4.70;1.60;;;13.30;99.90;;;;;;5012217;28;20057;-73
2022/07/17 01:42:49;;;;;;;2.63;1.38;;;13.10;99.90;;;;;;5012765;28;20524;-73
2022/07/17 01:45:16;;;;;;;2.47;1.45;;;13.20;99.90;;;;;;5012749;28;20393;-73
2022/07/17 01:47:42;;;;;;;4.18;1.30;;;13.10;99.90;;;;;;5012724;28;20045;-73
2022/07/17 01:50:09;;;;;;;3.78;1.50;;;13.40;99.90;;;;;;5012564;28;20022;-73
2022/07/17 01:52:37;;;;;;;4.10;1.35;;;13.30;99.90;;;;;;5012374;28;20496;-73
2022/07/17 01:55:05;;;;;;;2.70;1.13;;;13.20;99.90;;;;;;5011324;28;20392;-73
2022/07/17 01:57:30;;;;;;;4.55;1.33;;;12.90;99.90;;;;;;5012581;28;20140;-74
2022/07/17 01:59:56;;;;;;;4.32;1.42;;;13.10;99.90;;;;;;5012459;28;20544;-73
2022/07/17 02:02:21;;;;;;;4.15;1.40;;;13.00;99.90;;;;;;5011872;28;20026;-73
2022/07/17 02:04:47;;;;;;;3.65;1.55;;;13.10;99.90;;;;;;5011641;28;20072;-73
2022/07/17 02:07:13;;;;;;;1.63;1.13;;;12.80;99.90;;;;;;5012442;28;20064;-73
2022/07/17 02:09:39;;;;;;;3.70;1.60;;;12.40;99.90;;;;;;5009110;28;20084;-73
2022/07/17 02:12:05;;;;;;;3.40;1.67;;;12.40;99.90;;;;;;5011676;28;20021;-73
2022/07/17 02:14:31;;;;;;;5.43;1.60;;;12.10;99.90;;;;;;5012148;28;20057;-73
2022/07/17 02:16:57;;;;;;;5.28;1.50;;;12.00;99.90;;;;;;5012216;28;20050;-74
2022/07/17 02:19:22;;;;;;;4.70;1.58;;;12.20;99.90;;;;;;5010871;28;20018;-73
2022/07/17 02:21:48;;;;;;;4.57;1.60;;;12.20;99.90;;;;;;5010391;28;20026;-73
2022/07/17 02:24:13;;;;;;;5.63;1.42;;;12.40;99.90;;;;;;5012674;28;20030;-73
2022/07/17 02:26:40;;;;;;;2.55;1.35;;;12.30;99.90;;;;;;5012346;28;20423;-73
2022/07/17 02:29:06;;;;;;;4.55;1.60;;;12.20;99.90;;;;;;5008042;28;20030;-73
2022/07/17 02:31:31;;;;;;;5.18;1.50;;;12.00;99.90;;;;;;5011388;28;20485;-73
2022/07/17 02:33:57;;;;;;;6.65;1.77;;;11.50;99.90;;;;;;5010603;28;20117;-73
2022/07/17 02:36:23;;;;;;;4.35;1.52;;;11.70;99.90;;;;;;5011923;28;20023;-73
2022/07/17 02:38:48;;;;;;;7.40;1.52;;;11.80;99.90;;;;;;5011814;28;20068;-73
2022/07/17 02:41:15;;;;;;;3.45;1.52;;;11.90;99.90;;;;;;5011270;28;20105;-73
2022/07/17 02:43:41;;;;;;;2.65;1.52;;;12.00;99.90;;;;;;5011851;28;20026;-73
2022/07/17 02:46:07;;;;;;;3.97;1.42;;;11.90;99.90;;;;;;5011716;28;20025;-73
2022/07/17 02:48:33;;;;;;;3.88;1.75;;;11.70;99.90;;;;;;5011682;28;20476;-73
2022/07/17 02:50:58;;;;;;;5.45;1.30;;;11.60;99.90;;;;;;5011235;28;20036;-73
2022/07/17 02:53:24;;;;;;;1.70;1.30;;;11.50;99.90;;;;;;5007912;28;20042;-74
2022/07/17 02:55:49;;;;;;;2.55;1.48;;;11.40;99.90;;;;;;5011683;28;20056;-73
2022/07/17 02:58:15;;;;;;;4.78;1.58;;;11.90;99.90;;;;;;5011711;28;20021;-73
2022/07/17 03:00:40;;;;;;;2.35;1.40;;;11.90;99.90;;;;;;5011003;28;20164;-73
2022/07/17 03:03:06;;;;;;;4.28;1.70;;;11.80;99.90;;;;;;5011572;28;20477;-73
2022/07/17 03:05:32;;;;;;;2.15;1.40;;;11.30;99.90;;;;;;5012255;28;20116;-74
2022/07/17 03:07:57;;;;;;;4.35;1.60;;;11.30;99.90;;;;;;5010375;28;20051;-74
2022/07/17 03:10:23;;;;;;;3.55;1.48;;;11.20;99.90;;;;;;5011004;28;20563;-74
2022/07/17 03:12:48;;;;;;;3.05;1.52;;;11.30;99.90;;;;;;5011506;28;20022;-73
2022/07/17 03:15:15;;;;;;;2.85;1.60;;;11.50;99.90;;;;;;5011447;28;20443;-74
2022/07/17 03:17:41;;;;;;;1.70;1.50;;;11.10;99.90;;;;;;5011474;28;20336;-74
2022/07/17 03:20:08;;;;;;;2.97;1.50;;;10.90;99.90;;;;;;5022684;28;20026;-74
2022/07/17 03:22:34;;;;;;;4.60;1.48;;;11.00;99.90;;;;;;5032597;28;20057;-74
2022/07/17 03:24:59;;;;;;;4.30;1.70;;;11.40;99.90;;;;;;5015415;28;20076;-74
2022/07/17 03:27:25;;;;;;;4.97;1.40;;;11.10;99.90;;;;;;5015303;28;20061;-74
2022/07/17 03:29:52;;;;;;;4.25;1.83;;;11.20;99.90;;;;;;5015302;28;20029;-73
2022/07/17 03:32:17;;;;;;;3.83;1.55;;;11.20;99.90;;;;;;5014498;28;20052;-74
2022/07/17 03:34:43;;;;;;;3.80;1.40;;;11.40;99.90;;;;;;5015132;28;20392;-74
2022/07/17 03:37:09;;;;;;;2.83;1.60;;;11.50;99.90;;;;;;5015154;28;20095;-74
2022/07/17 03:39:34;;;;;;;3.15;1.40;;;11.50;99.90;;;;;;5014971;28;20034;-74
2022/07/17 03:42:00;;;;;;;4.63;1.30;;;11.40;99.90;;;;;;5014478;28;20022;-74
2022/07/17 03:44:26;;;;;;;3.25;1.38;;;11.40;99.90;;;;;;5015343;28;20034;-74
2022/07/17 03:46:51;;;;;;;3.15;1.60;;;11.50;99.90;;;;;;5014780;28;20105;-74
2022/07/17 03:49:17;;;;;;;4.28;1.20;;;11.50;99.90;;;;;;5014969;28;20492;-74
2022/07/17 03:51:42;;;;;;;3.65;1.50;;;11.60;99.90;;;;;;5014325;28;20038;-74
2022/07/17 03:54:08;;;;;;;5.57;1.50;;;11.60;99.90;;;;;;5014734;28;20022;-74
2022/07/17 03:56:33;;;;;;;3.38;1.55;;;11.70;99.90;;;;;;5014740;28;20037;-74
2022/07/17 03:58:59;;;;;;;6.38;1.63;;;11.60;99.90;;;;;;5014675;28;20029;-74
2022/07/17 04:01:25;;;;;;;3.22;1.40;;;11.70;99.90;;;;;;5009747;28;20023;-74
2022/07/17 04:03:50;;;;;;;4.45;1.60;;;11.70;99.90;;;;;;5015020;28;20058;-74
2022/07/17 04:06:16;;;;;;;2.00;1.15;;;11.60;99.90;;;;;;5014609;28;20029;-74
2022/07/17 04:08:42;;;;;;;4.45;1.55;;;11.90;99.90;;;;;;5014686;28;20112;-74
2022/07/17 04:11:08;;;;;;;3.35;1.45;;;11.80;99.90;;;;;;5013908;28;20045;-74
2022/07/17 04:13:34;;;;;;;3.97;1.35;;;11.50;99.90;;;;;;5009901;28;20038;-74
2022/07/17 04:16:02;;;;;;;5.82;1.90;;;11.80;99.90;;;;;;5008195;28;20421;-74
2022/07/17 04:18:30;;;;;;;2.22;1.20;;;11.80;99.90;;;;;;5013147;28;20076;-74
2022/07/17 04:20:58;;;;;;;2.97;1.55;;;11.90;99.90;;;;;;5013822;28;20018;-74
2022/07/17 04:23:24;;;;;;;3.05;1.45;;;12.10;99.90;;;;;;5014358;28;20030;-74
2022/07/17 04:25:50;;;;;;;3.67;1.63;;;12.10;99.90;;;;;;5014173;28;20022;-74
2022/07/17 04:28:15;;;;;;;4.10;1.70;;;12.00;99.90;;;;;;5014048;28;20030;-74
2022/07/17 04:30:41;;;;;;;3.25;1.50;;;12.40;99.90;;;;;;5012221;28;20440;-74
2022/07/17 04:33:07;;;;;;;2.55;1.60;;;12.50;99.90;;;;;;5014377;28;20114;-74
2022/07/17 04:35:33;;;;;;;2.75;1.40;;;12.40;99.90;;;;;;5010373;28;20113;-74
2022/07/17 04:37:59;;;;;;;3.88;1.80;;;12.50;99.90;;;;;;5014106;28;20151;-74
2022/07/17 04:40:25;;;;;;;4.47;1.50;;;12.40;99.90;;;;;;5014846;28;20484;-74
2022/07/17 04:42:50;;;;;;;5.20;1.73;;;12.60;99.90;;;;;;5013836;28;20079;-73
2022/07/17 04:45:16;;;;;;;3.17;1.60;;;12.40;99.90;;;;;;5012584;28;20370;-74
2022/07/17 04:47:42;;;;;;;3.15;1.40;;;12.10;99.90;;;;;;5013701;28;20511;-74
2022/07/17 04:50:09;;;;;;;4.50;1.50;;;12.40;99.90;;;;;;5012398;28;20033;-74
2022/07/17 04:52:35;;;;;;;5.13;1.48;;;12.40;99.90;;;;;;5013251;28;20030;-73
2022/07/17 04:55:00;;;;;;;5.82;1.80;;;12.40;99.90;;;;;;5013560;28;20037;-74
2022/07/17 04:57:26;;;;;;;2.85;1.40;;;12.40;99.90;;;;;;5009090;28;20026;-73
2022/07/17 04:59:52;;;;;;;2.65;1.70;;;12.30;99.90;;;;;;5007590;28;20484;-74
2022/07/17 05:02:18;;;;;;;4.57;1.20;;;12.20;99.90;;;;;;5013135;28;20153;-74
2022/07/17 05:04:43;;;;;;;3.38;1.50;;;12.60;99.90;;;;;;5013465;28;20477;-74
2022/07/17 05:07:09;;;;;;;2.83;1.40;;;12.70;99.90;;;;;;5013558;28;20025;-74
2022/07/17 05:09:35;;;;;;;3.83;1.70;;;12.90;99.90;;;;;;5013317;28;20076;-74
2022/07/17 05:12:00;;;;;;;4.07;1.40;;;13.20;99.90;;;;;;5012671;28;20084;-73
2022/07/17 05:14:26;;;;;;;5.15;1.48;;;13.00;99.90;;;;;;5013126;28;20080;-74
2022/07/17 05:16:52;;;;;;;5.38;1.23;;;13.40;99.90;;;;;;5012079;28;20018;-74
2022/07/17 05:19:17;;;;;;;4.32;1.70;;;13.40;99.90;;;;;;5013377;28;20148;-74
2022/07/17 05:21:43;;;;;;;5.10;1.60;;;13.50;99.90;;;;;;5032504;28;20484;-74
2022/07/17 05:24:08;;;;;;;3.83;1.40;;;13.80;99.90;;;;;;5033353;28;20472;-73
2022/07/17 05:26:34;;;;;;;4.05;1.40;;;14.00;99.90;;;;;;5033099;28;20033;-74
2022/07/17 05:28:59;;;;;;;4.47;1.48;;;14.30;99.90;;;;;;5032900;28;20034;-74
2022/07/17 05:31:25;;;;;;;3.70;1.73;;;14.30;99.90;;;;;;5032132;28;20030;-74
2022/07/17 05:33:50;;;;;;;5.40;1.60;;;14.30;99.90;;;;;;5032727;28;20391;-74
2022/07/17 05:36:16;;;;;;;3.33;1.20;;;14.70;99.90;;;;;;5032657;28;20108;-74
2022/07/17 05:38:42;;;;;;;8.45;1.80;;;14.60;99.90;;;;;;5030570;28;20021;-74
2022/07/17 05:41:07;;;;;;;5.07;1.25;;;14.60;99.90;;;;;;5011568;28;20041;-74
2022/07/17 05:43:33;;;;;;;3.05;1.48;;;14.80;99.90;;;;;;5012817;28;20041;-74
2022/07/17 05:45:59;;;;;;;6.75;1.70;;;14.90;99.90;;;;;;5012600;28;20033;-74
2022/07/17 05:48:25;;;;;;;3.95;1.63;;;15.20;99.90;;;;;;5012630;28;20069;-74
2022/07/17 05:50:53;;;;;;;3.60;1.48;;;15.20;99.90;;;;;;5012354;28;20026;-74
2022/07/17 05:53:19;;;;;;;5.00;1.50;;;15.50;99.90;;;;;;5025225;28;20033;-74
2022/07/17 05:55:44;;;;;;;3.90;1.60;;;15.40;99.90;;;;;;5032130;28;20031;-74
2022/07/17 05:58:10;;;;;;;4.22;1.50;;;15.60;99.90;;;;;;5032362;28;20017;-74
2022/07/17 06:00:36;;;;;;;4.88;1.60;;;15.80;99.90;;;;;;5025257;28;20488;-74
2022/07/17 06:03:03;;;;;;;4.85;1.50;;;16.00;99.90;;;;;;5012601;28;20058;-74
2022/07/17 06:05:29;;;;;;;4.72;1.65;;;15.90;99.90;;;;;;5012323;28;20108;-74
2022/07/17 06:07:56;;;;;;;4.85;1.55;;;16.10;99.90;;;;;;5012401;28;20101;-74
2022/07/17 06:10:22;;;;;;;4.47;1.10;;;16.10;99.90;;;;;;5007112;28;20018;-74
2022/07/17 06:12:49;;;;;;;5.85;1.55;;;16.30;99.90;;;;;;5005978;28;20026;-74
2022/07/17 06:15:15;;;;;;;4.85;1.60;;;16.10;99.90;;;;;;5012285;28;20029;-74
2022/07/17 06:17:41;;;;;;;3.95;1.40;;;16.30;99.90;;;;;;5007823;28;20499;-74
2022/07/17 06:20:07;;;;;;;5.32;1.50;;;16.60;99.90;;;;;;5012136;28;20025;-74
2022/07/17 06:22:33;;;;;;;5.40;1.52;;;16.60;99.90;;;;;;5010301;28;20025;-74
2022/07/17 06:24:59;;;;;;;4.80;1.30;;;16.50;99.90;;;;;;5012169;28;20029;-74
2022/07/17 06:27:24;;;;;;;4.07;1.50;;;16.60;99.90;;;;;;5012088;28;20037;-74
2022/07/17 06:29:50;;;;;;;3.03;1.38;;;16.60;99.90;;;;;;5010811;28;20029;-74
2022/07/17 06:32:16;;;;;;;4.28;1.30;;;16.70;99.90;;;;;;5006933;28;20040;-74
2022/07/17 06:34:42;;;;;;;4.30;1.40;;;16.60;99.90;;;;;;5011620;28;20259;-74
2022/07/17 06:37:07;;;;;;;4.60;1.50;;;16.60;99.90;;;;;;5012015;28;20026;-74
2022/07/17 06:39:33;;;;;;;3.50;1.50;;;16.70;99.90;;;;;;5003727;28;20118;-74
2022/07/17 06:41:59;;;;;;;3.72;1.40;;;16.90;99.90;;;;;;5003872;28;20373;-74
2022/07/17 06:44:24;;;;;;;5.55;1.60;;;16.90;99.90;;;;;;5011831;28;20400;-74
2022/07/17 06:46:50;;;;;;;5.47;1.45;;;16.90;99.90;;;;;;5011598;28;20038;-74
2022/07/17 06:49:16;;;;;;;6.20;1.48;;;17.00;99.90;;;;;;5010698;28;20670;-74
2022/07/17 06:51:41;;;;;;;3.78;1.75;;;17.10;99.90;;;;;;5010721;28;20022;-74
2022/07/17 06:54:07;;;;;;;6.75;1.50;;;17.40;99.90;;;;;;5011517;28;20025;-74
2022/07/17 06:56:33;;;;;;;4.22;1.40;;;17.50;99.90;;;;;;5011703;28;20030;-74
2022/07/17 06:58:58;;;;;;;4.40;1.35;;;17.50;99.90;;;;;;5011740;28;20388;-74
2022/07/17 07:01:24;;;;;;;5.65;1.20;;;17.80;99.90;;;;;;5011172;28;20034;-73
2022/07/17 07:03:49;;;;;;;3.28;1.30;;;18.10;99.90;;;;;;5011769;28;20080;-74
2022/07/17 07:06:15;;;;;;;2.70;1.20;;;18.10;99.90;;;;;;5011622;28;20500;-74
2022/07/17 07:08:41;;;;;;;5.82;1.60;;;18.30;99.90;;;;;;5011554;28;20061;-74
2022/07/17 07:11:07;;;;;;;3.10;1.40;;;18.30;99.90;;;;;;5011122;28;20061;-74
2022/07/17 07:13:32;;;;;;;4.10;1.20;;;18.30;99.90;;;;;;5011630;28;20561;-74
2022/07/17 07:15:59;;;;;;;5.15;1.50;;;18.60;99.90;;;;;;5011593;28;20033;-73
2022/07/17 07:18:25;;;;;;;5.00;1.20;;;18.40;99.90;;;;;;5011651;28;20046;-74
2022/07/17 07:20:50;;;;;;;6.53;1.50;;;18.90;99.90;;;;;;5010898;28;20085;-75
2022/07/17 07:23:16;;;;;;;4.10;1.60;;;18.70;99.90;;;;;;5011467;28;20460;-75
2022/07/17 07:25:43;;;;;;;5.60;1.70;;;18.70;99.90;;;;;;5011392;28;20030;-74
2022/07/17 07:28:08;;;;;;;4.07;1.38;;;18.90;99.90;;;;;;5011580;28;20022;-74
2022/07/17 07:30:34;;;;;;;5.30;1.30;;;19.00;99.90;;;;;;5010784;28;20084;-74
2022/07/17 07:33:00;;;;;;;3.60;1.50;;;19.40;99.90;;;;;;5011392;28;20088;-74
2022/07/17 07:35:25;;;;;;;4.22;1.40;;;19.50;99.90;;;;;;5011148;28;20029;-74
2022/07/17 07:37:51;;;;;;;4.70;1.20;;;19.80;99.90;;;;;;5018146;28;20025;-74
2022/07/17 07:40:16;;;;;;;4.88;1.55;;;19.30;99.90;;;;;;5015770;28;20483;-74
2022/07/17 07:42:42;;;;;;;3.25;1.02;;;19.10;99.90;;;;;;5011333;28;20428;-74
2022/07/17 07:45:08;;;;;;;3.20;1.38;;;19.00;99.90;;;;;;5011307;28;20026;-74
2022/07/17 07:47:44;;;;;;;9.32;1.50;;;19.10;99.90;;;;;;5011124;28;20069;-74
2022/07/17 07:50:11;;;;;;;4.82;1.30;;;19.30;99.90;;;;;;5011088;28;20101;-74
2022/07/17 07:52:38;;;;;;;3.72;1.08;;;19.30;99.90;;;;;;5006431;28;20043;-74
2022/07/17 07:55:04;;;;;;;4.15;1.23;;;19.30;99.90;;;;;;5005361;28;20029;-74
2022/07/17 07:57:30;;;;;;;2.70;1.33;;;19.20;99.90;;;;;;5011224;28;20087;-74
2022/07/17 07:59:56;;;;;;;2.58;1.00;;;19.40;99.90;;;;;;5011144;28;20469;-74
2022/07/17 08:02:21;;;;;;;2.90;1.60;;;19.50;99.90;;;;;;5010673;28;20037;-74
2022/07/17 08:04:47;;;;;;;5.82;1.45;;;19.50;99.90;;;;;;5010971;28;20504;-74
2022/07/17 08:07:12;;;;;;;2.45;1.15;;;19.50;99.90;;;;;;5014577;28;20500;-74
2022/07/17 08:09:38;;;;;;;3.47;1.48;;;19.60;99.90;;;;;;5014566;28;20025;-74
2022/07/17 08:12:04;;;;;;;6.15;1.40;;;19.80;99.90;;;;;;5014221;28;20037;-74
2022/07/17 08:14:29;;;;;;;3.30;1.20;;;20.00;99.90;;;;;;5014267;28;20038;-74
2022/07/17 08:16:55;;;;;;;3.88;1.30;;;20.10;99.90;;;;;;5014386;28;20103;-74
2022/07/17 08:19:21;;;;;;;5.18;1.27;;;20.20;99.90;;;;;;5014197;28;20066;-73
2022/07/17 08:21:46;;;;;;;4.85;1.38;;;20.20;99.90;;;;;;5013631;28;20026;-74
2022/07/17 08:24:12;;;;;;;5.90;1.38;;;20.20;99.90;;;;;;5014207;28;20030;-74
2022/07/17 08:26:37;;;;;;;4.22;1.23;;;20.00;99.90;;;;;;5014379;28;20072;-74
2022/07/17 08:29:03;;;;;;;4.53;1.20;;;19.90;99.90;;;;;;5014332;28;20030;-74
2022/07/17 08:31:29;;;;;;;3.67;1.50;;;19.80;99.90;;;;;;5009534;28;20081;-74
2022/07/17 08:33:54;;;;;;;2.67;1.17;;;20.10;99.90;;;;;;5023495;28;20412;-75
2022/07/17 08:36:20;;;;;;;3.90;1.10;;;20.20;99.90;;;;;;5013946;28;20018;-74
2022/07/17 08:38:46;;;;;;;2.78;1.20;;;20.30;99.90;;;;;;5013855;28;20041;-74
2022/07/17 08:41:16;;;;;;;3.45;1.00;;;20.50;99.90;;;;;;5013441;28;20109;-74
2022/07/17 08:43:42;;;;;;;2.65;1.25;;;20.40;99.80;;;;;;5014263;28;20022;-74
2022/07/17 08:46:10;;;;;;;3.53;1.13;;;20.20;99.80;;;;;;5012530;28;20025;-74
2022/07/17 08:48:38;;;;;;;2.60;1.15;;;20.50;99.40;;;;;;5013608;28;20038;-74
2022/07/17 08:51:05;;;;;;;2.40;1.35;;;20.50;99.50;;;;;;5013185;28;20381;-73
2022/07/17 08:53:30;;;;;;;1.90;1.00;;;20.70;98.80;;;;;;5013734;28;20033;-74
2022/07/17 08:55:56;;;;;;;3.58;1.15;;;20.50;98.20;;;;;;5013757;28;20036;-74
2022/07/17 08:58:22;;;;;;;1.85;1.02;;;20.60;97.70;;;;;;5013722;28;20026;-74
2022/07/17 09:00:49;;;;;;;3.65;1.20;;;20.60;98.80;;;;;;5013061;28;20513;-74
2022/07/17 09:03:16;;;;;;;4.40;1.15;;;20.60;98.00;;;;;;5012204;28;20026;-74
2022/07/17 09:05:41;;;;;;;4.57;1.10;;;20.70;97.70;;;;;;5009396;28;20026;-74
2022/07/17 09:08:09;;;;;;;3.58;1.10;;;20.80;97.40;;;;;;5008650;28;20041;-74
2022/07/17 09:10:43;;;;;;;2.33;1.08;;;20.80;96.40;;;;;;5012791;28;20117;-73
2022/07/17 09:13:29;;;;;;;4.45;1.20;;;21.00;96.80;;;;;;5013370;28;20022;-73
2022/07/17 09:15:59;;;;;;;2.63;1.10;;;21.20;96.80;;;;;;5013189;28;20118;-73
2022/07/17 09:18:25;;;;;;;2.53;1.17;;;21.00;96.30;;;;;;5012005;28;20034;-73
2022/07/17 09:20:53;;;;;;;5.05;1.13;;;21.30;96.50;;;;;;5011458;28;20048;-73
2022/07/17 09:23:21;;;;;;;1.48;0.90;;;21.10;95.70;;;;;;5013316;28;20056;-74
2022/07/17 09:25:50;;;;;;;3.70;1.02;;;21.30;96.00;;;;;;5012998;28;20026;-74
2022/07/17 09:28:16;;;;;;;2.88;1.00;;;21.40;95.60;;;;;;5013050;28;20040;-74
2022/07/17 09:30:47;;;;;;;3.10;1.10;;;21.50;95.50;;;;;;5012470;28;20046;-74
2022/07/17 09:33:19;;;;;;;2.55;1.17;;;21.80;95.60;;;;;;5013118;28;20025;-74
2022/07/17 09:35:49;;;;;;;2.85;1.00;;;22.00;95.40;;;;;;5012875;28;20042;-73
2022/07/17 09:38:31;;;;;;;2.97;1.30;;;21.50;94.80;;;;;;5012999;28;20428;-74
2022/07/17 09:41:11;;;;;;;3.00;1.35;;;21.50;94.60;;;;;;5010753;28;20466;-74
2022/07/17 09:43:44;;;;;;;4.43;1.63;;;21.70;94.20;;;;;;5012821;28;20021;-74
2022/07/17 09:46:14;;;;;;;5.32;1.25;;;21.60;94.30;;;;;;5012891;28;20036;-73
2022/07/17 09:48:49;;;;;;;4.75;1.10;;;21.80;95.60;;;;;;5013079;28;20029;-73
2022/07/17 09:51:24;;;;;;;2.47;1.02;;;22.00;94.50;;;;;;5012109;28;20026;-73
2022/07/17 09:53:56;;;;;;;5.80;1.17;;;21.50;95.00;;;;;;5012565;28;20040;-74
2022/07/17 09:56:23;;;;;;;3.67;1.40;;;21.90;95.50;;;;;;5012640;28;20121;-73
2022/07/17 09:58:54;;;;;;;4.90;1.10;;;22.00;95.00;;;;;;5012900;28;20374;-74
2022/07/17 10:01:20;;;;;;;3.85;1.13;;;22.20;94.00;;;;;;5011941;28;20105;-74
2022/07/17 10:03:48;;;;;;;3.75;1.05;;;22.10;94.70;;;;;;5012380;28;20404;-74
2022/07/17 10:06:15;;;;;;;3.13;1.30;;;22.40;93.90;;;;;;5011174;28;20030;-74
2022/07/17 10:08:41;;;;;;;6.00;1.45;;;22.50;94.90;;;;;;5012405;28;20026;-74
2022/07/17 10:11:10;;;;;;;5.70;1.15;;;22.60;94.40;;;;;;5011838;28;20529;-74
2022/07/17 10:13:39;;;;;;;3.13;1.30;;;22.90;93.60;;;;;;5012330;28;20077;-74
2022/07/17 10:16:05;;;;;;;4.15;1.30;;;23.40;94.00;;;;;;5012165;28;20469;-74
2022/07/17 10:18:43;;;;;;;2.65;1.30;;;22.90;93.40;;;;;;5012256;28;20030;-73
2022/07/17 10:21:09;;;;;;;2.45;0.90;;;22.90;92.20;;;;;;5011546;28;20381;-73
2022/07/17 10:23:35;;;;;;;4.95;1.38;;;22.70;92.90;;;;;;5012339;28;20030;-74
2022/07/17 10:26:01;;;;;;;4.22;1.35;;;23.10;92.90;;;;;;5009177;28;20050;-74
2022/07/17 10:28:47;;;;;;;2.83;1.10;;;23.20;93.00;;;;;;5012213;28;20057;-74
2022/07/17 10:31:27;;;;;;;2.45;1.20;;;23.00;92.10;;;;;;5011452;28;20053;-73
2022/07/17 10:34:01;;;;;;;8.82;1.63;;;22.80;92.10;;;;;;5012085;28;20469;-73
2022/07/17 10:36:37;;;;;;;4.57;1.27;;;23.00;92.00;;;;;;5011840;28;20029;-73
2022/07/17 10:39:17;;;;;;;4.70;1.13;;;23.20;91.80;;;;;;5011819;28;20033;-74
2022/07/17 10:41:54;;;;;;;4.32;1.50;;;23.30;91.40;;;;;;5010037;28;20026;-73
2022/07/17 10:44:26;;;;;;;3.80;1.20;;;23.20;90.90;;;;;;5011848;28;20021;-73
2022/07/17 10:46:52;;;;;;;3.00;0.90;;;23.40;91.20;;;;;;5011962;28;20369;-73
2022/07/17 10:49:18;;;;;;;1.70;1.10;;;23.60;89.90;;;;;;5011989;28;20038;-74
2022/07/17 10:51:44;;;;;;;3.38;1.33;;;23.90;86.60;;;;;;5011074;28;20034;-73
2022/07/17 10:54:10;;;;;;;2.45;1.00;;;23.80;87.50;;;;;;5011337;28;20033;-73
2022/07/17 10:56:35;;;;;;;3.13;1.02;;;24.00;85.20;;;;;;5011704;28;20040;-74
2022/07/17 10:59:02;;;;;;;1.83;1.10;;;24.30;85.30;;;;;;5011673;28;20524;-74
2022/07/17 11:01:28;;;;;;;2.88;1.08;;;24.30;85.30;;;;;;5011024;28;20096;-73
2022/07/17 11:03:56;;;;;;;2.75;1.30;;;24.70;83.80;;;;;;5011765;28;20075;-74
2022/07/17 11:06:24;;;;;;;4.85;1.55;;;24.60;83.20;;;;;;5011591;28;20050;-74
2022/07/17 11:09:00;;;;;;;3.00;0.98;;;24.50;84.10;;;;;;5011705;28;20038;-74
2022/07/17 11:11:48;;;;;;;1.92;1.33;;;24.70;82.70;;;;;;5010946;28;20060;-74
2022/07/17 11:14:17;;;;;;;1.92;1.15;;;24.70;84.10;;;;;;5011419;28;20061;-74
2022/07/17 11:16:55;;;;;;;2.20;1.30;;;24.80;84.50;;;;;;5006921;28;20026;-74
2022/07/17 11:19:31;;;;;;;2.75;1.00;;;25.10;85.80;;;;;;5006304;28;20516;-74
2022/07/17 11:21:58;;;;;;;2.83;1.20;;;24.90;82.10;;;;;;5009968;28;20022;-74
2022/07/17 11:24:26;;;;;;;2.45;1.10;;;25.30;82.80;;;;;;5009677;28;20034;-73
2022/07/17 11:26:52;;;;;;;4.20;1.15;;;25.40;81.60;;;;;;5010196;28;20026;-73
2022/07/17 11:29:18;;;;;;;2.40;1.02;;;25.30;79.80;;;;;;5011257;28;20034;-73
2022/07/17 11:31:44;;;;;;;2.45;1.02;;;25.30;78.30;;;;;;5006375;28;20113;-73
2022/07/17 11:34:11;;;;;;;1.30;0.90;;;25.40;77.30;;;;;;5007523;28;20388;-73
2022/07/17 11:36:44;;;;;;;2.60;1.38;;;25.20;77.70;;;;;;5011472;28;20365;-74
2022/07/17 11:39:14;;;;;;;1.52;1.10;;;25.50;75.10;;;;;;5014022;28;20029;-74
2022/07/17 11:41:44;;;;;;;1.85;1.00;;;25.80;76.70;;;;;;5014529;28;20022;-74
2022/07/17 11:44:16;;;;;;;1.67;1.10;;;25.50;74.60;;;;;;5014977;28;20026;-74
2022/07/17 11:46:47;;;;;;;5.78;1.20;;;25.80;76.10;;;;;;5015071;28;20030;-74
2022/07/17 11:49:27;;;;;;;3.10;1.20;;;25.80;75.60;;;;;;5002387;28;20030;-74
2022/07/17 11:51:59;;;;;;;2.58;1.00;;;25.50;76.50;;;;;;5014312;28;20036;-74
2022/07/17 11:54:26;;;;;;;2.00;0.90;;;25.70;76.60;;;;;;5013600;28;20056;-74
2022/07/17 11:56:54;;;;;;;2.65;1.15;;;26.40;76.60;;;;;;5013576;28;20040;-74
2022/07/17 11:59:28;;;;;;;3.35;1.15;;;26.40;74.50;;;;;;5014823;28;20022;-74
2022/07/17 12:01:54;;;;;;;1.48;0.90;;;26.30;75.20;;;;;;5014144;28;20018;-74
2022/07/17 12:04:20;;;;;;;3.60;1.17;;;26.50;75.20;;;;;;5010257;28;20413;-74
2022/07/17 12:06:57;;;;;;;3.15;1.00;;;26.80;73.90;;;;;;5028145;28;20056;-74
2022/07/17 12:09:27;;;;;;;4.00;1.10;;;26.60;73.80;;;;;;5014912;28;20129;-74
2022/07/17 12:11:52;;;;;;;2.55;0.80;;;26.40;72.40;;;;;;5014061;28;20520;-74
2022/07/17 12:14:18;;;;;;;2.85;0.98;;;26.00;71.10;;;;;;5014336;28;20208;-74
2022/07/17 12:16:44;;;;;;;1.70;1.10;;;26.10;71.70;;;;;;5014584;28;20026;-74
2022/07/17 12:19:18;;;;;;;3.08;0.90;;;26.30;69.70;;;;;;5014260;28;20018;-74
2022/07/17 12:21:51;;;;;;;2.72;1.17;;;26.60;70.70;;;;;;5009311;28;20441;-74
2022/07/17 12:24:26;;;;;;;2.50;1.00;;;26.70;69.80;;;;;;5010008;28;20030;-74
2022/07/17 12:26:52;;;;;;;2.22;1.13;;;26.50;69.40;;;;;;5014449;28;20048;-74
2022/07/17 12:29:17;;;;;;;2.03;0.90;;;26.40;70.50;;;;;;5012781;28;20033;-74
2022/07/17 12:31:43;;;;;;;2.80;1.38;;;26.70;72.00;;;;;;5013604;28;20105;-74
2022/07/17 12:34:09;;;;;;;1.55;1.00;;;26.80;68.60;;;;;;5013945;28;20034;-74
2022/07/17 12:36:34;;;;;;;2.92;0.95;;;26.70;67.90;;;;;;5014101;28;20101;-74
2022/07/17 12:39:00;;;;;;;4.45;1.00;;;26.60;68.40;;;;;;5014081;28;20026;-74
2022/07/17 12:41:26;;;;;;;1.08;0.90;;;27.20;69.80;;;;;;5013470;28;20033;-74
2022/07/17 12:43:51;;;;;;;2.67;1.02;;;27.80;69.80;;;;;;5013946;28;20029;-74
2022/07/17 12:46:17;;;;;;;2.00;1.00;;;27.20;68.70;;;;;;5013639;28;20038;-74